createdAt,value
2019-06-26T00:00:56.628Z,26.70
2019-06-26T00:03:23.082Z,26.60
2019-06-26T00:05:49.486Z,26.70
2019-06-26T00:08:16.306Z,26.70
2019-06-26T00:10:42.678Z,26.40
2019-06-26T00:13:22.081Z,26.50
2019-06-26T00:15:38.564Z,26.40
2019-06-26T00:18:05.193Z,26.30
2019-06-26T00:20:31.653Z,26.30
2019-06-26T00:22:58.164Z,26.30
2019-06-26T00:25:24.695Z,26.30
2019-06-26T00:27:52.936Z,26.40
2019-06-26T00:30:19.674Z,26.40
2019-06-26T00:32:46.186Z,26.40
2019-06-26T00:35:12.913Z,26.50
2019-06-26T00:37:40.470Z,26.50
2019-06-26T00:40:07.429Z,26.40
2019-06-26T00:42:34.074Z,26.40
2019-06-26T00:45:00.649Z,26.30
2019-06-26T00:47:27.030Z,26.20
2019-06-26T00:49:53.523Z,26.10
2019-06-26T00:52:20.065Z,26.00
2019-06-26T00:54:46.571Z,25.90
2019-06-26T00:57:13.232Z,26.00
2019-06-26T00:59:40.663Z,26.10
2019-06-26T01:02:07.298Z,26.10
2019-06-26T01:04:44.668Z,26.20
2019-06-26T01:07:11.327Z,26.20
2019-06-26T01:09:37.772Z,25.80
2019-06-26T01:12:04.450Z,25.70
2019-06-26T01:14:31.085Z,25.80
2019-06-26T01:16:57.545Z,25.80
2019-06-26T01:19:25.098Z,25.70
2019-06-26T01:21:51.639Z,25.60
2019-06-26T01:24:18.096Z,25.50
2019-06-26T01:26:44.761Z,25.30
2019-06-26T01:29:12.886Z,25.30
2019-06-26T01:31:39.430Z,25.30
2019-06-26T01:34:05.843Z,25.50
2019-06-26T01:36:32.234Z,25.50
2019-06-26T01:38:58.907Z,25.60
2019-06-26T01:41:25.514Z,25.50
2019-06-26T01:43:52.033Z,25.50
2019-06-26T01:46:18.663Z,25.70
2019-06-26T01:48:45.208Z,25.70
2019-06-26T01:51:11.737Z,25.80
2019-06-26T01:53:38.401Z,25.70
2019-06-26T01:56:04.940Z,25.50
2019-06-26T01:58:31.639Z,25.40
2019-06-26T02:00:58.194Z,25.50
2019-06-26T02:03:26.168Z,25.60
2019-06-26T02:05:52.693Z,25.50
2019-06-26T02:08:19.182Z,25.30
2019-06-26T02:10:46.280Z,25.30
2019-06-26T02:13:13.850Z,25.40
2019-06-26T02:15:40.236Z,25.40
2019-06-26T02:18:08.811Z,25.50
2019-06-26T02:20:35.450Z,25.70
2019-06-26T02:23:02.171Z,25.40
2019-06-26T02:25:28.835Z,25.30
2019-06-26T02:27:55.416Z,25.40
2019-06-26T02:30:24.683Z,25.10
2019-06-26T02:32:51.373Z,25.10
2019-06-26T02:35:18.119Z,25.10
2019-06-26T02:37:44.704Z,25.10
2019-06-26T02:40:11.586Z,25.20
2019-06-26T02:42:38.810Z,25.30
2019-06-26T02:45:05.662Z,25.30
2019-06-26T02:47:32.391Z,25.40
2019-06-26T02:49:58.829Z,25.00
2019-06-26T02:52:25.368Z,25.10
2019-06-26T02:54:51.836Z,25.20
2019-06-26T02:57:18.391Z,25.30
2019-06-26T02:59:44.866Z,25.30
2019-06-26T03:02:11.559Z,25.30
2019-06-26T03:04:38.017Z,25.20
2019-06-26T03:07:04.567Z,25.20
2019-06-26T03:09:31.969Z,25.20
2019-06-26T03:11:58.239Z,25.30
2019-06-26T03:14:24.690Z,25.40
2019-06-26T03:16:51.265Z,25.30
2019-06-26T03:19:17.925Z,25.20
2019-06-26T03:21:44.418Z,25.20
2019-06-26T03:24:10.815Z,25.00
2019-06-26T03:26:37.231Z,25.10
2019-06-26T03:29:03.920Z,25.10
2019-06-26T03:31:30.661Z,25.10
2019-06-26T03:33:57.018Z,25.00
2019-06-26T03:36:23.468Z,25.00
2019-06-26T03:38:50.048Z,25.00
2019-06-26T03:41:16.485Z,24.90
2019-06-26T03:43:43.111Z,24.90
2019-06-26T03:46:09.742Z,24.90
2019-06-26T03:48:36.320Z,24.70
2019-06-26T03:51:03.012Z,24.70
2019-06-26T03:53:30.713Z,24.40
2019-06-26T03:55:57.244Z,24.50
2019-06-26T03:58:23.666Z,24.50
2019-06-26T04:00:50.166Z,24.50
2019-06-26T04:03:16.736Z,24.40
2019-06-26T04:05:43.094Z,24.30
2019-06-26T04:08:09.599Z,24.30
2019-06-26T04:10:36.195Z,24.30
2019-06-26T04:13:03.282Z,24.40
2019-06-26T04:15:41.505Z,24.50
2019-06-26T04:17:59.201Z,24.60
2019-06-26T04:20:25.699Z,24.60
2019-06-26T04:22:52.120Z,24.50
2019-06-26T04:25:18.650Z,24.30
2019-06-26T04:27:45.014Z,24.50
2019-06-26T04:30:12.110Z,24.50
2019-06-26T04:32:39.754Z,24.40
2019-06-26T04:35:06.535Z,24.40
2019-06-26T04:37:34.077Z,24.40
2019-06-26T04:40:00.817Z,24.40
2019-06-26T04:42:27.204Z,24.40
2019-06-26T04:44:53.957Z,24.50
2019-06-26T04:47:20.370Z,24.60
2019-06-26T04:49:47.403Z,24.60
2019-06-26T04:52:13.931Z,24.60
2019-06-26T04:54:40.795Z,24.70
2019-06-26T04:57:07.383Z,24.80
2019-06-26T04:59:35.978Z,24.80
2019-06-26T05:02:02.630Z,24.90
2019-06-26T05:04:29.185Z,24.80
2019-06-26T05:06:55.654Z,24.80
2019-06-26T05:09:22.173Z,24.80
2019-06-26T05:11:48.852Z,24.90
2019-06-26T05:14:15.438Z,24.80
2019-06-26T05:16:41.916Z,25.00
2019-06-26T05:19:08.472Z,25.00
2019-06-26T05:21:35.048Z,25.20
2019-06-26T05:24:01.641Z,25.20
2019-06-26T05:26:28.402Z,25.30
2019-06-26T05:28:55.084Z,25.40
2019-06-26T05:31:21.655Z,25.30
2019-06-26T05:33:49.246Z,25.20
2019-06-26T05:36:15.648Z,25.30
2019-06-26T05:38:42.046Z,25.30
2019-06-26T05:41:08.325Z,25.50
2019-06-26T05:43:34.827Z,25.60
2019-06-26T05:46:01.266Z,25.70
2019-06-26T05:48:28.027Z,25.70
2019-06-26T05:50:54.601Z,25.70
2019-06-26T05:53:21.274Z,25.90
2019-06-26T05:55:47.731Z,26.00
2019-06-26T05:58:14.385Z,26.10
2019-06-26T06:00:40.945Z,26.20
2019-06-26T06:03:07.415Z,26.40
2019-06-26T06:05:34.059Z,26.60
2019-06-26T06:08:00.429Z,26.80
2019-06-26T06:10:27.090Z,26.90
2019-06-26T06:12:53.749Z,27.00
2019-06-26T06:15:20.362Z,27.30
2019-06-26T06:17:47.169Z,27.40
2019-06-26T06:20:17.569Z,27.60
2019-06-26T06:22:43.995Z,27.70
2019-06-26T06:25:11.892Z,27.80
2019-06-26T06:27:38.611Z,27.90
2019-06-26T06:30:05.745Z,28.00
2019-06-26T06:32:32.284Z,28.20
2019-06-26T06:35:00.643Z,28.30
2019-06-26T06:37:27.308Z,28.50
2019-06-26T06:39:53.793Z,28.60
2019-06-26T06:42:20.582Z,28.80
2019-06-26T06:44:47.142Z,28.90
2019-06-26T06:47:13.647Z,29.00
2019-06-26T06:49:41.279Z,29.10
2019-06-26T06:52:07.776Z,29.10
2019-06-26T06:54:34.407Z,29.20
2019-06-26T06:57:01.078Z,29.30
2019-06-26T06:59:27.718Z,29.40
2019-06-26T07:01:54.213Z,29.50
2019-06-26T07:04:20.773Z,29.60
2019-06-26T07:06:47.309Z,29.70
2019-06-26T07:09:13.771Z,29.80
2019-06-26T07:11:42.611Z,29.90
2019-06-26T07:14:09.257Z,30.00
2019-06-26T07:16:35.809Z,30.10
2019-06-26T07:19:02.487Z,30.20
2019-06-26T07:21:28.955Z,30.20
2019-06-26T07:23:55.467Z,30.40
2019-06-26T07:26:22.190Z,30.50
2019-06-26T07:28:48.925Z,30.50
2019-06-26T07:31:18.498Z,30.60
2019-06-26T07:33:45.902Z,30.70
2019-06-26T07:36:12.583Z,30.70
2019-06-26T07:38:39.302Z,30.80
2019-06-26T07:41:05.976Z,30.80
2019-06-26T07:43:32.481Z,30.80
2019-06-26T07:45:59.073Z,30.80
2019-06-26T07:48:25.488Z,30.90
2019-06-26T07:50:51.958Z,31.00
2019-06-26T07:53:18.360Z,31.10
2019-06-26T07:55:45.968Z,31.20
2019-06-26T07:58:12.515Z,31.20
2019-06-26T08:00:39.297Z,31.30
2019-06-26T08:03:06.954Z,31.50
2019-06-26T08:05:33.633Z,31.50
2019-06-26T08:08:00.172Z,31.60
2019-06-26T08:10:26.764Z,31.50
2019-06-26T08:12:53.288Z,31.60
2019-06-26T08:15:19.940Z,31.50
2019-06-26T08:17:59.797Z,31.60
2019-06-26T08:20:15.272Z,31.70
2019-06-26T08:22:41.675Z,31.70
2019-06-26T08:25:08.304Z,31.70
2019-06-26T08:27:35.138Z,31.90
2019-06-26T08:30:03.095Z,31.90
2019-06-26T08:32:29.973Z,31.90
2019-06-26T08:34:56.367Z,32.00
2019-06-26T08:37:27.391Z,32.10
2019-06-26T08:39:55.002Z,32.20
2019-06-26T08:42:21.743Z,32.20
2019-06-26T08:44:48.192Z,32.20
2019-06-26T08:47:14.763Z,32.20
2019-06-26T08:49:41.266Z,32.20
2019-06-26T08:52:07.834Z,32.10
2019-06-26T08:54:34.256Z,32.20
2019-06-26T08:57:00.859Z,32.30
2019-06-26T08:59:27.246Z,32.40
2019-06-26T09:01:54.735Z,32.40
2019-06-26T09:04:21.488Z,32.50
2019-06-26T09:06:47.995Z,32.50
2019-06-26T09:09:14.516Z,32.50
2019-06-26T09:11:41.179Z,32.60
2019-06-26T09:14:07.612Z,32.70
2019-06-26T09:16:34.278Z,32.80
2019-06-26T09:19:00.953Z,32.70
2019-06-26T09:21:30.923Z,32.80
2019-06-26T09:23:56.770Z,32.80
2019-06-26T09:26:23.361Z,32.80
2019-06-26T09:28:49.815Z,32.90
2019-06-26T09:31:16.349Z,32.90
2019-06-26T09:33:42.850Z,32.90
2019-06-26T09:36:09.747Z,32.90
2019-06-26T09:38:38.828Z,32.90
2019-06-26T09:41:05.440Z,32.90
2019-06-26T09:43:32.091Z,33.00
2019-06-26T09:45:59.590Z,33.00
2019-06-26T09:48:26.361Z,32.90
2019-06-26T09:50:52.989Z,33.10
2019-06-26T09:53:20.574Z,33.10
2019-06-26T09:55:47.237Z,33.00
2019-06-26T09:58:13.899Z,33.00
2019-06-26T10:00:40.901Z,33.20
2019-06-26T10:03:07.583Z,33.20
2019-06-26T10:05:33.991Z,33.20
2019-06-26T10:08:02.636Z,33.20
2019-06-26T10:10:29.051Z,33.30
2019-06-26T10:12:55.661Z,33.30
2019-06-26T10:15:22.360Z,33.30
2019-06-26T10:17:49.235Z,33.30
2019-06-26T10:20:16.047Z,33.20
2019-06-26T10:22:42.485Z,33.20
2019-06-26T10:25:11.416Z,33.20
2019-06-26T10:27:38.297Z,33.20
2019-06-26T10:30:12.100Z,33.10
2019-06-26T10:32:38.653Z,33.10
2019-06-26T10:35:05.359Z,33.20
2019-06-26T10:37:32.036Z,33.20
2019-06-26T10:39:59.806Z,33.10
2019-06-26T10:42:26.406Z,33.20
2019-06-26T10:44:52.984Z,33.10
2019-06-26T10:47:19.519Z,33.00
2019-06-26T10:49:46.299Z,33.10
2019-06-26T10:52:13.224Z,33.10
2019-06-26T10:54:43.973Z,33.10
2019-06-26T10:57:08.278Z,33.00
2019-06-26T10:59:34.944Z,33.10
2019-06-26T11:02:01.489Z,33.10
2019-06-26T11:04:28.108Z,33.10
2019-06-26T11:06:54.708Z,33.20
2019-06-26T11:09:21.118Z,33.10
2019-06-26T11:11:50.776Z,33.10
2019-06-26T11:14:24.933Z,33.20
2019-06-26T11:16:51.545Z,33.10
2019-06-26T11:19:18.323Z,32.90
2019-06-26T11:21:44.855Z,32.80
2019-06-26T11:24:11.408Z,32.80
2019-06-26T11:26:37.906Z,32.80
2019-06-26T11:29:04.950Z,32.90
2019-06-26T11:31:31.504Z,32.80
2019-06-26T11:33:59.156Z,32.90
2019-06-26T11:36:26.846Z,33.00
2019-06-26T11:38:53.525Z,33.00
2019-06-26T11:41:23.478Z,32.90
2019-06-26T11:43:50.379Z,33.00
2019-06-26T11:46:17.204Z,33.10
2019-06-26T11:48:44.697Z,33.10
2019-06-26T11:51:11.382Z,33.10
2019-06-26T11:53:38.034Z,33.10
2019-06-26T11:56:04.681Z,33.10
2019-06-26T11:58:32.439Z,33.20
2019-06-26T12:00:58.907Z,33.20
2019-06-26T12:03:25.351Z,33.10
2019-06-26T12:05:52.037Z,33.00
2019-06-26T12:08:18.687Z,33.00
2019-06-26T12:10:45.303Z,33.00
2019-06-26T12:13:12.055Z,33.10
2019-06-26T12:15:39.448Z,33.00
2019-06-26T12:18:06.034Z,33.00
2019-06-26T12:20:34.645Z,33.00
2019-06-26T12:23:01.083Z,33.00
2019-06-26T12:25:28.945Z,33.00
2019-06-26T12:27:55.678Z,32.90
2019-06-26T12:30:22.565Z,32.90
2019-06-26T12:33:02.305Z,32.90
2019-06-26T12:35:18.505Z,32.90
2019-06-26T12:37:45.719Z,33.00
2019-06-26T12:40:13.220Z,33.00
2019-06-26T12:42:42.144Z,33.00
2019-06-26T12:45:09.292Z,33.10
2019-06-26T12:47:36.530Z,33.10
2019-06-26T12:50:08.615Z,33.00
2019-06-26T12:52:35.244Z,32.90
2019-06-26T12:55:03.826Z,32.90
2019-06-26T12:57:32.667Z,33.00
2019-06-26T12:59:59.381Z,33.00
2019-06-26T13:02:27.025Z,32.90
2019-06-26T13:04:54.813Z,32.90
2019-06-26T13:07:21.627Z,32.90
2019-06-26T13:09:48.275Z,32.90
2019-06-26T13:12:14.964Z,32.80
2019-06-26T13:14:41.609Z,32.80
2019-06-26T13:17:08.402Z,32.80
2019-06-26T13:19:35.132Z,32.70
2019-06-26T13:22:01.965Z,32.70
2019-06-26T13:24:28.694Z,32.70
2019-06-26T13:26:56.689Z,32.70
2019-06-26T13:29:23.374Z,32.70
2019-06-26T13:31:50.247Z,32.70
2019-06-26T13:34:16.874Z,32.60
2019-06-26T13:36:43.481Z,32.60
2019-06-26T13:39:10.093Z,32.60
2019-06-26T13:41:37.028Z,32.70
2019-06-26T13:44:05.027Z,32.70
2019-06-26T13:46:31.669Z,32.70
2019-06-26T13:48:58.774Z,32.70
2019-06-26T13:51:26.045Z,32.70
2019-06-26T13:53:52.785Z,32.70
2019-06-26T13:56:19.552Z,32.70
2019-06-26T13:58:46.286Z,32.70
2019-06-26T14:01:12.613Z,32.70
2019-06-26T14:03:39.490Z,32.70
2019-06-26T14:06:06.058Z,32.80
2019-06-26T14:08:33.731Z,32.70
2019-06-26T14:11:02.268Z,32.70
2019-06-26T14:13:28.731Z,32.70
2019-06-26T14:15:55.268Z,32.70
2019-06-26T14:18:21.807Z,32.80
2019-06-26T14:20:48.516Z,32.80
2019-06-26T14:23:15.535Z,32.80
2019-06-26T14:25:42.105Z,32.70
2019-06-26T14:28:08.669Z,32.60
2019-06-26T14:30:35.203Z,32.60
2019-06-26T14:33:02.017Z,32.60
2019-06-26T14:35:28.544Z,32.60
2019-06-26T14:37:54.909Z,32.60
2019-06-26T14:40:21.361Z,32.60
2019-06-26T14:42:47.979Z,32.60
2019-06-26T14:45:15.992Z,32.50
2019-06-26T14:47:42.620Z,32.50
2019-06-26T14:50:10.433Z,32.50
2019-06-26T14:52:37.141Z,32.50
2019-06-26T14:55:05.649Z,32.60
2019-06-26T14:57:32.082Z,32.60
2019-06-26T14:59:58.630Z,32.60
2019-06-26T15:02:25.347Z,32.60
2019-06-26T15:04:51.806Z,32.60
2019-06-26T15:07:18.321Z,32.60
2019-06-26T15:09:44.786Z,32.60
2019-06-26T15:12:11.405Z,32.60
2019-06-26T15:14:37.818Z,32.60
2019-06-26T15:17:05.501Z,32.60
2019-06-26T15:19:32.102Z,32.60
2019-06-26T15:21:59.077Z,32.60
2019-06-26T15:24:28.676Z,32.60
2019-06-26T15:26:55.244Z,32.70
2019-06-26T15:29:21.898Z,32.70
2019-06-26T15:31:48.668Z,32.60
2019-06-26T15:34:15.300Z,32.70
2019-06-26T15:36:43.096Z,32.70
2019-06-26T15:39:10.892Z,32.70
2019-06-26T15:41:37.540Z,32.70
2019-06-26T15:44:04.214Z,32.60
2019-06-26T15:46:31.809Z,32.60
2019-06-26T15:48:58.574Z,32.60
2019-06-26T15:51:25.150Z,32.60
2019-06-26T15:53:51.777Z,32.60
2019-06-26T15:56:18.193Z,32.60
2019-06-26T15:58:44.881Z,32.60
2019-06-26T16:01:11.587Z,32.60
2019-06-26T16:03:38.240Z,32.60
2019-06-26T16:06:04.680Z,32.60
2019-06-26T16:08:31.199Z,32.60
2019-06-26T16:10:57.626Z,32.60
2019-06-26T16:13:24.053Z,32.60
2019-06-26T16:15:50.809Z,32.60
2019-06-26T16:18:19.326Z,32.60
2019-06-26T16:20:45.714Z,32.60
2019-06-26T16:23:12.199Z,32.60
2019-06-26T16:25:38.731Z,32.60
2019-06-26T16:28:06.163Z,32.60
2019-06-26T16:30:33.213Z,32.60
2019-06-26T16:32:59.806Z,32.70
2019-06-26T16:35:26.202Z,32.60
2019-06-26T16:37:52.786Z,32.60
2019-06-26T16:40:19.385Z,32.60
2019-06-26T16:42:45.934Z,32.60
2019-06-26T16:45:13.744Z,32.60
2019-06-26T16:47:41.323Z,32.60
2019-06-26T16:50:08.008Z,32.60
2019-06-26T16:52:47.814Z,32.50
2019-06-26T16:55:07.636Z,32.60
2019-06-26T16:57:34.225Z,32.50
2019-06-26T17:00:09.623Z,32.50
2019-06-26T17:02:28.907Z,32.50
2019-06-26T17:04:55.337Z,32.50
2019-06-26T17:07:21.906Z,32.50
2019-06-26T17:09:48.368Z,32.40
2019-06-26T17:12:15.058Z,32.40
2019-06-26T17:14:41.554Z,32.40
2019-06-26T17:17:08.197Z,32.30
2019-06-26T17:19:34.577Z,32.30
2019-06-26T17:22:01.007Z,32.20
2019-06-26T17:24:27.592Z,32.20
2019-06-26T17:26:54.795Z,32.20
2019-06-26T17:29:22.639Z,32.10
2019-06-26T17:31:49.151Z,32.10
2019-06-26T17:34:16.754Z,32.10
2019-06-26T17:36:43.299Z,32.10
2019-06-26T17:39:10.776Z,32.10
2019-06-26T17:41:37.441Z,32.10
2019-06-26T17:44:03.913Z,32.10
2019-06-26T17:46:30.356Z,32.00
2019-06-26T17:48:58.778Z,32.00
2019-06-26T17:51:25.186Z,32.00
2019-06-26T17:53:51.780Z,32.00
2019-06-26T17:56:18.571Z,32.00
2019-06-26T17:58:45.266Z,31.90
2019-06-26T18:01:11.888Z,31.90
2019-06-26T18:03:38.592Z,31.90
2019-06-26T18:06:05.924Z,31.90
2019-06-26T18:08:32.409Z,31.90
2019-06-26T18:10:59.164Z,31.80
2019-06-26T18:13:25.587Z,31.80
2019-06-26T18:15:52.068Z,31.80
2019-06-26T18:18:18.651Z,31.80
2019-06-26T18:20:45.185Z,31.70
2019-06-26T18:23:11.801Z,31.70
2019-06-26T18:25:38.320Z,31.70
2019-06-26T18:28:04.913Z,31.70
2019-06-26T18:30:31.508Z,31.70
2019-06-26T18:32:58.350Z,31.70
2019-06-26T18:35:24.946Z,31.60
2019-06-26T18:37:51.744Z,31.60
2019-06-26T18:40:18.327Z,31.60
2019-06-26T18:42:44.829Z,31.50
2019-06-26T18:45:12.043Z,31.50
2019-06-26T18:47:38.780Z,31.50
2019-06-26T18:50:08.179Z,31.50
2019-06-26T18:52:35.924Z,31.40
2019-06-26T18:55:07.067Z,31.40
2019-06-26T18:57:33.695Z,31.40
2019-06-26T19:00:00.197Z,31.30
2019-06-26T19:02:26.975Z,31.30
2019-06-26T19:04:54.299Z,31.30
2019-06-26T19:07:20.922Z,31.30
2019-06-26T19:09:47.581Z,31.30
2019-06-26T19:12:14.091Z,31.20
2019-06-26T19:14:40.630Z,31.20
2019-06-26T19:17:07.290Z,31.20
2019-06-26T19:19:33.636Z,31.10
2019-06-26T19:22:00.059Z,31.10
2019-06-26T19:24:26.529Z,31.10
2019-06-26T19:26:53.167Z,31.00
2019-06-26T19:29:19.767Z,31.00
2019-06-26T19:31:46.385Z,31.00
2019-06-26T19:34:12.945Z,31.00
2019-06-26T19:36:49.696Z,31.00
2019-06-26T19:39:10.729Z,30.90
2019-06-26T19:41:37.261Z,30.90
2019-06-26T19:44:03.949Z,30.80
2019-06-26T19:46:32.572Z,30.80
2019-06-26T19:48:59.225Z,30.80
2019-06-26T19:51:27.824Z,30.80
2019-06-26T19:53:54.255Z,30.80
2019-06-26T19:56:21.017Z,30.80
2019-06-26T19:58:47.567Z,30.70
2019-06-26T20:01:14.299Z,30.70
2019-06-26T20:03:40.687Z,30.70
2019-06-26T20:06:07.181Z,30.60
2019-06-26T20:08:34.704Z,30.60
2019-06-26T20:11:01.297Z,30.50
2019-06-26T20:13:28.091Z,30.50
2019-06-26T20:15:54.511Z,30.40
2019-06-26T20:18:20.891Z,30.40
2019-06-26T20:20:47.880Z,30.50
2019-06-26T20:23:15.123Z,30.50
2019-06-26T20:25:41.553Z,30.40
2019-06-26T20:28:08.176Z,30.30
2019-06-26T20:30:34.780Z,30.30
2019-06-26T20:33:01.532Z,30.30
2019-06-26T20:35:28.025Z,30.30
2019-06-26T20:37:54.503Z,30.20
2019-06-26T20:40:21.092Z,30.20
2019-06-26T20:42:47.780Z,30.10
2019-06-26T20:45:15.620Z,30.10
2019-06-26T20:47:42.237Z,30.10
2019-06-26T20:50:08.934Z,30.10
2019-06-26T20:52:37.575Z,30.00
2019-06-26T20:55:04.699Z,30.00
2019-06-26T20:57:31.139Z,30.00
2019-06-26T20:59:57.705Z,30.00
2019-06-26T21:02:24.091Z,30.00
2019-06-26T21:04:50.682Z,29.90
2019-06-26T21:07:18.075Z,29.80
2019-06-26T21:09:44.985Z,29.80
2019-06-26T21:12:11.577Z,29.70
2019-06-26T21:14:38.555Z,29.70
2019-06-26T21:17:05.271Z,29.60
2019-06-26T21:19:31.715Z,29.60
2019-06-26T21:21:59.207Z,29.50
2019-06-26T21:24:25.767Z,29.50
2019-06-26T21:26:52.408Z,29.50
2019-06-26T21:29:18.979Z,29.40
2019-06-26T21:31:45.423Z,29.40
2019-06-26T21:34:12.108Z,29.30
2019-06-26T21:36:38.714Z,29.30
2019-06-26T21:39:06.022Z,29.20
2019-06-26T21:41:32.871Z,29.10
2019-06-26T21:43:59.981Z,29.10
2019-06-26T21:46:27.031Z,29.00
2019-06-26T21:48:54.025Z,29.00
2019-06-26T21:51:20.956Z,28.90
2019-06-26T21:53:48.907Z,28.80
2019-06-26T21:56:34.464Z,28.90
2019-06-26T21:59:19.380Z,28.80
2019-06-26T22:02:04.559Z,28.70
2019-06-26T22:04:51.117Z,28.60
2019-06-26T22:07:25.811Z,28.60
2019-06-26T22:10:00.448Z,28.50
2019-06-26T22:12:29.001Z,28.50
2019-06-26T22:14:55.622Z,28.50
2019-06-26T22:17:22.563Z,28.50
2019-06-26T22:19:49.196Z,28.50
2019-06-26T22:22:15.721Z,28.60
2019-06-26T22:24:42.138Z,28.50
2019-06-26T22:27:08.668Z,28.60
2019-06-26T22:29:35.105Z,28.60
2019-06-26T22:32:01.596Z,28.50
2019-06-26T22:34:28.303Z,28.50
2019-06-26T22:36:55.014Z,28.40
2019-06-26T22:39:31.177Z,28.50
2019-06-26T22:42:01.254Z,28.40
2019-06-26T22:44:27.726Z,28.30
2019-06-26T22:46:55.100Z,28.40
2019-06-26T22:49:21.468Z,28.20
2019-06-26T22:51:48.598Z,28.00
2019-06-26T22:54:18.938Z,28.00
2019-06-26T22:56:44.277Z,27.90
2019-06-26T22:59:10.763Z,27.90
2019-06-26T23:01:37.251Z,27.80
2019-06-26T23:04:04.756Z,27.70
2019-06-26T23:06:31.198Z,27.60
2019-06-26T23:08:57.753Z,27.70
2019-06-26T23:11:24.116Z,27.70
2019-06-26T23:13:50.548Z,27.60
2019-06-26T23:16:17.105Z,27.70
2019-06-26T23:18:43.502Z,27.60
2019-06-26T23:21:09.920Z,27.60
2019-06-26T23:23:36.445Z,27.70
2019-06-26T23:26:02.992Z,27.70
2019-06-26T23:28:29.424Z,27.80
2019-06-26T23:30:56.765Z,27.70
2019-06-26T23:33:23.198Z,27.80
2019-06-26T23:35:49.631Z,27.70
2019-06-26T23:38:16.105Z,27.60
2019-06-26T23:40:42.632Z,27.70
2019-06-26T23:43:09.082Z,27.70
2019-06-26T23:45:35.511Z,27.70
2019-06-26T23:48:02.366Z,27.70
2019-06-26T23:50:28.862Z,27.70
2019-06-26T23:52:55.377Z,27.70
2019-06-26T23:55:23.646Z,27.70
2019-06-26T23:57:58.939Z,27.80
